sensor_id;sensor_type;location;lat;lon;timestamp;pressure;altitude;pressure_sealevel;temperature;humidity
41234;BME280;26968;42.686;23.352;2023-06-26T00:01:57;95019.03;;;20.36;76.51
41234;BME280;26968;42.686;23.352;2023-06-26T00:04:22;95020.34;;;20.30;76.68
41234;BME280;26968;42.686;23.352;2023-06-26T00:06:48;95014.63;;;20.31;76.84
41234;BME280;26968;42.686;23.352;2023-06-26T00:09:13;95030.81;;;20.44;76.60
41234;BME280;26968;42.686;23.352;2023-06-26T00:11:39;95026.16;;;20.56;76.30
41234;BME280;26968;42.686;23.352;2023-06-26T00:14:04;94992.75;;;20.33;76.32
41234;BME280;26968;42.686;23.352;2023-06-26T00:16:30;95042.47;;;20.48;76.12
41234;BME280;26968;42.686;23.352;2023-06-26T00:18:56;95032.34;;;20.45;76.55
41234;BME280;26968;42.686;23.352;2023-06-26T00:21:21;95028.00;;;20.28;77.13
41234;BME280;26968;42.686;23.352;2023-06-26T00:23:47;95039.75;;;20.48;77.00
41234;BME280;26968;42.686;23.352;2023-06-26T00:26:13;95038.75;;;20.52;76.66
41234;BME280;26968;42.686;23.352;2023-06-26T00:28:38;95015.63;;;20.51;76.26
41234;BME280;26968;42.686;23.352;2023-06-26T00:31:04;95015.13;;;20.73;75.39
41234;BME280;26968;42.686;23.352;2023-06-26T00:33:29;95003.63;;;20.24;76.19
41234;BME280;26968;42.686;23.352;2023-06-26T00:35:55;95027.44;;;20.34;76.71
41234;BME280;26968;42.686;23.352;2023-06-26T00:38:20;95011.16;;;20.07;77.77
41234;BME280;26968;42.686;23.352;2023-06-26T00:40:46;95031.91;;;20.18;77.40
41234;BME280;26968;42.686;23.352;2023-06-26T00:43:12;94966.19;;;19.71;78.09
41234;BME280;26968;42.686;23.352;2023-06-26T00:45:37;95024.06;;;20.25;77.62
41234;BME280;26968;42.686;23.352;2023-06-26T00:48:03;95012.94;;;20.27;78.20
41234;BME280;26968;42.686;23.352;2023-06-26T00:50:28;95026.75;;;20.25;77.55
41234;BME280;26968;42.686;23.352;2023-06-26T00:52:54;94979.31;;;19.96;77.97
41234;BME280;26968;42.686;23.352;2023-06-26T00:55:26;95019.03;;;20.36;77.42
41234;BME280;26968;42.686;23.352;2023-06-26T00:57:51;94988.06;;;20.06;77.78
41234;BME280;26968;42.686;23.352;2023-06-26T01:00:17;95005.78;;;20.19;77.66
41234;BME280;26968;42.686;23.352;2023-06-26T01:02:43;94965.41;;;19.94;78.20
41234;BME280;26968;42.686;23.352;2023-06-26T01:05:08;94998.16;;;20.21;77.55
41234;BME280;26968;42.686;23.352;2023-06-26T01:07:38;94993.09;;;20.19;77.69
41234;BME280;26968;42.686;23.352;2023-06-26T01:10:05;95000.06;;;20.08;78.23
41234;BME280;26968;42.686;23.352;2023-06-26T01:12:32;94994.34;;;19.97;78.50
41234;BME280;26968;42.686;23.352;2023-06-26T01:14:59;94942.31;;;19.81;77.80
41234;BME280;26968;42.686;23.352;2023-06-26T01:17:26;94993.66;;;20.00;78.15
41234;BME280;26968;42.686;23.352;2023-06-26T01:19:53;94967.56;;;19.89;77.96
41234;BME280;26968;42.686;23.352;2023-06-26T01:25:23;95009.47;;;20.26;77.72
41234;BME280;26968;42.686;23.352;2023-06-26T01:27:54;94997.81;;;20.10;77.84
41234;BME280;26968;42.686;23.352;2023-06-26T01:30:20;95001.06;;;19.91;78.82
41234;BME280;26968;42.686;23.352;2023-06-26T01:32:47;94883.56;;;19.35;78.91
41234;BME280;26968;42.686;23.352;2023-06-26T01:35:13;94985.47;;;20.21;78.22
41234;BME280;26968;42.686;23.352;2023-06-26T01:37:39;94945.00;;;19.69;78.38
41234;BME280;26968;42.686;23.352;2023-06-26T01:40:05;94972.25;;;19.92;78.56
41234;BME280;26968;42.686;23.352;2023-06-26T01:42:34;94945.22;;;19.76;78.73
41234;BME280;26968;42.686;23.352;2023-06-26T01:45:07;94964.84;;;19.77;78.82
41234;BME280;26968;42.686;23.352;2023-06-26T01:47:37;94983.38;;;19.90;78.56
41234;BME280;26968;42.686;23.352;2023-06-26T01:50:15;94986.47;;;19.92;78.79
41234;BME280;26968;42.686;23.352;2023-06-26T01:52:48;94974.25;;;19.95;78.44
41234;BME280;26968;42.686;23.352;2023-06-26T01:55:22;94984.25;;;19.94;78.38
41234;BME280;26968;42.686;23.352;2023-06-26T01:57:52;94947.34;;;19.71;78.53
41234;BME280;26968;42.686;23.352;2023-06-26T02:00:20;94972.16;;;19.88;77.91
41234;BME280;26968;42.686;23.352;2023-06-26T02:02:46;94953.97;;;19.85;77.95
41234;BME280;26968;42.686;23.352;2023-06-26T02:05:12;94967.66;;;20.04;77.40
41234;BME280;26968;42.686;23.352;2023-06-26T02:07:37;94966.16;;;20.07;77.21
41234;BME280;26968;42.686;23.352;2023-06-26T02:10:03;94952.75;;;19.83;77.24
41234;BME280;26968;42.686;23.352;2023-06-26T02:12:29;94981.78;;;20.01;77.12
41234;BME280;26968;42.686;23.352;2023-06-26T02:14:54;94968.66;;;20.00;77.15
41234;BME280;26968;42.686;23.352;2023-06-26T02:17:19;94965.06;;;19.84;77.41
41234;BME280;26968;42.686;23.352;2023-06-26T02:19:45;94987.03;;;19.86;77.74
41234;BME280;26968;42.686;23.352;2023-06-26T02:22:13;94960.34;;;19.69;78.21
41234;BME280;26968;42.686;23.352;2023-06-26T02:24:40;94986.03;;;19.78;78.33
41234;BME280;26968;42.686;23.352;2023-06-26T02:27:05;94980.19;;;19.52;78.68
41234;BME280;26968;42.686;23.352;2023-06-26T02:29:32;94977.50;;;19.64;78.51
41234;BME280;26968;42.686;23.352;2023-06-26T02:31:57;94962.63;;;19.67;77.99
41234;BME280;26968;42.686;23.352;2023-06-26T02:34:23;94983.78;;;19.92;77.95
41234;BME280;26968;42.686;23.352;2023-06-26T02:36:49;94984.38;;;19.98;77.15
41234;BME280;26968;42.686;23.352;2023-06-26T02:39:14;94941.66;;;19.60;77.33
41234;BME280;26968;42.686;23.352;2023-06-26T02:41:40;94981.91;;;19.81;77.47
41234;BME280;26968;42.686;23.352;2023-06-26T02:44:05;94991.19;;;19.71;78.18
41234;BME280;26968;42.686;23.352;2023-06-26T02:46:32;94968.75;;;19.55;78.42
41234;BME280;26968;42.686;23.352;2023-06-26T02:48:58;94984.56;;;19.69;78.43
41234;BME280;26968;42.686;23.352;2023-06-26T02:51:24;94913.88;;;19.23;78.24
41234;BME280;26968;42.686;23.352;2023-06-26T02:53:49;94976.47;;;19.44;79.26
41234;BME280;26968;42.686;23.352;2023-06-26T02:56:14;94980.31;;;19.55;79.64
41234;BME280;26968;42.686;23.352;2023-06-26T02:58:40;94996.41;;;19.43;79.60
41234;BME280;26968;42.686;23.352;2023-06-26T03:01:05;94960.84;;;19.38;79.62
41234;BME280;26968;42.686;23.352;2023-06-26T03:03:30;94977.56;;;19.43;79.63
41234;BME280;26968;42.686;23.352;2023-06-26T03:06:06;94990.84;;;19.60;79.33
41234;BME280;26968;42.686;23.352;2023-06-26T03:08:32;94989.56;;;19.46;79.56
41234;BME280;26968;42.686;23.352;2023-06-26T03:10:58;94989.13;;;19.44;79.63
41234;BME280;26968;42.686;23.352;2023-06-26T03:13:23;94973.97;;;19.39;78.85
41234;BME280;26968;42.686;23.352;2023-06-26T03:15:49;94954.28;;;19.02;79.87
41234;BME280;26968;42.686;23.352;2023-06-26T03:18:15;94867.34;;;18.20;80.93
41234;BME280;26968;42.686;23.352;2023-06-26T03:20:40;94953.16;;;18.70;81.33
41234;BME280;26968;42.686;23.352;2023-06-26T03:23:05;94982.44;;;18.63;82.61
41234;BME280;26968;42.686;23.352;2023-06-26T03:25:31;94989.81;;;18.75;82.42
41234;BME280;26968;42.686;23.352;2023-06-26T03:27:57;94963.91;;;18.70;81.93
41234;BME280;26968;42.686;23.352;2023-06-26T03:30:22;94990.16;;;19.06;81.60
41234;BME280;26968;42.686;23.352;2023-06-26T03:32:48;94920.28;;;18.73;80.37
41234;BME280;26968;42.686;23.352;2023-06-26T03:35:13;94998.16;;;19.27;79.98
41234;BME280;26968;42.686;23.352;2023-06-26T03:37:40;95000.78;;;19.15;80.42
41234;BME280;26968;42.686;23.352;2023-06-26T03:40:06;94966.66;;;18.82;80.79
41234;BME280;26968;42.686;23.352;2023-06-26T03:42:31;94965.69;;;18.66;81.43
41234;BME280;26968;42.686;23.352;2023-06-26T03:44:57;94882.88;;;18.15;81.52
41234;BME280;26968;42.686;23.352;2023-06-26T03:47:22;94995.47;;;18.94;81.29
41234;BME280;26968;42.686;23.352;2023-06-26T03:49:48;95005.06;;;19.16;80.55
41234;BME280;26968;42.686;23.352;2023-06-26T03:52:13;95005.97;;;19.20;80.65
41234;BME280;26968;42.686;23.352;2023-06-26T03:54:39;95001.97;;;19.26;80.53
41234;BME280;26968;42.686;23.352;2023-06-26T03:57:04;94985.28;;;19.33;79.77
41234;BME280;26968;42.686;23.352;2023-06-26T03:59:30;94970.94;;;19.28;79.12
41234;BME280;26968;42.686;23.352;2023-06-26T04:01:55;94981.66;;;19.16;80.04
41234;BME280;26968;42.686;23.352;2023-06-26T04:04:21;94997.91;;;19.20;80.25
41234;BME280;26968;42.686;23.352;2023-06-26T04:06:47;94950.25;;;18.96;80.48
41234;BME280;26968;42.686;23.352;2023-06-26T04:09:12;94961.44;;;18.98;79.81
41234;BME280;26968;42.686;23.352;2023-06-26T04:11:38;95000.97;;;18.98;80.84
41234;BME280;26968;42.686;23.352;2023-06-26T04:14:03;94977.03;;;19.05;80.22
41234;BME280;26968;42.686;23.352;2023-06-26T04:16:29;94998.16;;;19.27;79.92
41234;BME280;26968;42.686;23.352;2023-06-26T04:18:54;94965.44;;;19.25;78.84
41234;BME280;26968;42.686;23.352;2023-06-26T04:21:21;94998.09;;;19.48;78.66
41234;BME280;26968;42.686;23.352;2023-06-26T04:23:51;94983.69;;;19.52;78.05
41234;BME280;26968;42.686;23.352;2023-06-26T04:26:16;94989.25;;;19.47;77.69
41234;BME280;26968;42.686;23.352;2023-06-26T04:28:42;95010.25;;;19.33;78.12
41234;BME280;26968;42.686;23.352;2023-06-26T04:31:08;94971.81;;;19.20;78.29
41234;BME280;26968;42.686;23.352;2023-06-26T04:33:35;95004.19;;;19.57;78.09
41234;BME280;26968;42.686;23.352;2023-06-26T04:36:04;94998.41;;;19.46;77.57
41234;BME280;26968;42.686;23.352;2023-06-26T04:38:31;95015.94;;;19.52;77.67
41234;BME280;26968;42.686;23.352;2023-06-26T04:40:57;95007.66;;;19.57;77.96
41234;BME280;26968;42.686;23.352;2023-06-26T04:43:22;94977.44;;;19.40;77.31
41234;BME280;26968;42.686;23.352;2023-06-26T04:45:48;94993.00;;;19.67;77.28
41234;BME280;26968;42.686;23.352;2023-06-26T04:48:13;95007.56;;;19.78;77.08
41234;BME280;26968;42.686;23.352;2023-06-26T04:50:39;94983.38;;;19.90;76.44
41234;BME280;26968;42.686;23.352;2023-06-26T04:53:05;94986.50;;;19.80;76.14
41234;BME280;26968;42.686;23.352;2023-06-26T04:55:30;94990.53;;;19.86;75.84
41234;BME280;26968;42.686;23.352;2023-06-26T04:57:56;94977.53;;;19.88;75.63
41234;BME280;26968;42.686;23.352;2023-06-26T05:00:21;95026.19;;;19.83;76.71
41234;BME280;26968;42.686;23.352;2023-06-26T05:02:47;95015.50;;;19.62;77.37
41234;BME280;26968;42.686;23.352;2023-06-26T05:05:13;94993.53;;;19.48;76.89
41234;BME280;26968;42.686;23.352;2023-06-26T05:07:41;94972.28;;;19.35;77.24
41234;BME280;26968;42.686;23.352;2023-06-26T05:10:07;94984.78;;;19.51;77.47
41234;BME280;26968;42.686;23.352;2023-06-26T05:12:33;94988.81;;;19.57;77.46
41234;BME280;26968;42.686;23.352;2023-06-26T05:14:59;95016.84;;;19.69;77.53
41234;BME280;26968;42.686;23.352;2023-06-26T05:17:24;95001.84;;;19.80;77.15
41234;BME280;26968;42.686;23.352;2023-06-26T05:19:49;95027.06;;;20.24;76.12
41234;BME280;26968;42.686;23.352;2023-06-26T05:22:16;94962.84;;;19.74;75.85
41234;BME280;26968;42.686;23.352;2023-06-26T05:24:45;95020.16;;;19.98;75.44
41234;BME280;26968;42.686;23.352;2023-06-26T05:27:12;95013.28;;;19.89;75.79
41234;BME280;26968;42.686;23.352;2023-06-26T05:29:48;95023.16;;;20.21;75.36
41234;BME280;26968;42.686;23.352;2023-06-26T05:32:16;94994.56;;;20.04;74.91
41234;BME280;26968;42.686;23.352;2023-06-26T05:34:48;95029.97;;;20.31;74.46
41234;BME280;26968;42.686;23.352;2023-06-26T05:37:20;95028.91;;;20.44;73.93
41234;BME280;26968;42.686;23.352;2023-06-26T05:39:47;94989.72;;;20.22;73.40
41234;BME280;26968;42.686;23.352;2023-06-26T05:42:13;94958.22;;;20.11;72.97
41234;BME280;26968;42.686;23.352;2023-06-26T05:44:39;95009.34;;;20.59;72.47
41234;BME280;26968;42.686;23.352;2023-06-26T05:47:04;95025.91;;;20.73;72.32
41234;BME280;26968;42.686;23.352;2023-06-26T05:49:30;95017.44;;;20.47;72.34
41234;BME280;26968;42.686;23.352;2023-06-26T05:51:56;95029.44;;;20.37;72.51
41234;BME280;26968;42.686;23.352;2023-06-26T05:54:23;94965.53;;;19.98;72.94
41234;BME280;26968;42.686;23.352;2023-06-26T05:56:51;95025.19;;;20.49;73.05
41234;BME280;26968;42.686;23.352;2023-06-26T05:59:20;95026.75;;;20.50;73.15
41234;BME280;26968;42.686;23.352;2023-06-26T06:01:45;94967.38;;;20.22;72.51
41234;BME280;26968;42.686;23.352;2023-06-26T06:04:11;95026.63;;;20.58;72.29
41234;BME280;26968;42.686;23.352;2023-06-26T06:06:36;95040.38;;;20.81;71.66
41234;BME280;26968;42.686;23.352;2023-06-26T06:09:01;95027.84;;;20.61;72.12
41234;BME280;26968;42.686;23.352;2023-06-26T06:11:27;95031.09;;;20.66;72.08
41234;BME280;26968;42.686;23.352;2023-06-26T06:13:52;95019.53;;;20.66;71.50
41234;BME280;26968;42.686;23.352;2023-06-26T06:16:17;95023.28;;;20.89;71.41
41234;BME280;26968;42.686;23.352;2023-06-26T06:18:43;95008.56;;;20.87;71.47
41234;BME280;26968;42.686;23.352;2023-06-26T06:21:08;95031.13;;;20.94;71.50
41234;BME280;26968;42.686;23.352;2023-06-26T06:23:34;95041.19;;;21.09;71.18
41234;BME280;26968;42.686;23.352;2023-06-26T06:25:59;95018.97;;;21.00;71.00
41234;BME280;26968;42.686;23.352;2023-06-26T06:28:24;94988.31;;;20.65;70.42
41234;BME280;26968;42.686;23.352;2023-06-26T06:30:50;94983.84;;;20.57;70.32
41234;BME280;26968;42.686;23.352;2023-06-26T06:33:15;95035.00;;;20.81;71.38
41234;BME280;26968;42.686;23.352;2023-06-26T06:35:41;95035.38;;;20.95;70.39
41234;BME280;26968;42.686;23.352;2023-06-26T06:38:06;95035.59;;;21.02;70.26
41234;BME280;26968;42.686;23.352;2023-06-26T06:40:32;95013.91;;;20.99;70.19
41234;BME280;26968;42.686;23.352;2023-06-26T06:42:57;95032.63;;;21.20;68.95
41234;BME280;26968;42.686;23.352;2023-06-26T06:45:22;95013.16;;;21.14;68.33
41234;BME280;26968;42.686;23.352;2023-06-26T06:47:48;95009.94;;;21.21;68.47
41234;BME280;26968;42.686;23.352;2023-06-26T06:50:13;95033.22;;;21.41;67.37
41234;BME280;26968;42.686;23.352;2023-06-26T06:52:43;94918.75;;;20.55;68.19
41234;BME280;26968;42.686;23.352;2023-06-26T06:55:09;95035.19;;;21.28;68.60
41234;BME280;26968;42.686;23.352;2023-06-26T06:57:39;94998.63;;;21.03;68.00
41234;BME280;26968;42.686;23.352;2023-06-26T07:00:07;95022.56;;;21.32;67.38
41234;BME280;26968;42.686;23.352;2023-06-26T07:02:44;95013.50;;;21.25;66.73
41234;BME280;26968;42.686;23.352;2023-06-26T07:05:10;95018.03;;;21.36;65.80
41234;BME280;26968;42.686;23.352;2023-06-26T07:07:36;95015.81;;;21.54;65.82
41234;BME280;26968;42.686;23.352;2023-06-26T07:10:05;94951.13;;;21.26;65.09
41234;BME280;26968;42.686;23.352;2023-06-26T07:12:33;95018.81;;;21.80;64.61
41234;BME280;26968;42.686;23.352;2023-06-26T07:15:00;95009.13;;;21.64;65.25
41234;BME280;26968;42.686;23.352;2023-06-26T07:17:25;94996.41;;;21.64;64.58
41234;BME280;26968;42.686;23.352;2023-06-26T07:19:54;95023.59;;;21.71;64.69
41234;BME280;26968;42.686;23.352;2023-06-26T07:22:19;95002.00;;;21.87;64.28
41234;BME280;26968;42.686;23.352;2023-06-26T07:24:46;94995.13;;;21.74;64.47
41234;BME280;26968;42.686;23.352;2023-06-26T07:27:16;94999.53;;;21.82;63.10
41234;BME280;26968;42.686;23.352;2023-06-26T07:29:43;94988.41;;;21.83;62.76
41234;BME280;26968;42.686;23.352;2023-06-26T07:32:08;95009.97;;;22.30;62.28
41234;BME280;26968;42.686;23.352;2023-06-26T07:34:34;94982.38;;;22.21;62.12
41234;BME280;26968;42.686;23.352;2023-06-26T07:37:00;95015.78;;;22.48;60.60
41234;BME280;26968;42.686;23.352;2023-06-26T07:39:26;95016.72;;;22.56;59.59
41234;BME280;26968;42.686;23.352;2023-06-26T07:41:52;94940.69;;;22.03;60.44
41234;BME280;26968;42.686;23.352;2023-06-26T07:44:17;94946.31;;;22.14;59.54
41234;BME280;26968;42.686;23.352;2023-06-26T07:46:43;94980.34;;;22.34;59.73
41234;BME280;26968;42.686;23.352;2023-06-26T07:49:10;94993.44;;;22.32;60.02
41234;BME280;26968;42.686;23.352;2023-06-26T07:51:35;94985.47;;;22.39;59.89
41234;BME280;26968;42.686;23.352;2023-06-26T07:54:01;94994.63;;;22.50;59.44
41234;BME280;26968;42.686;23.352;2023-06-26T07:56:26;95002.91;;;22.77;59.54
41234;BME280;26968;42.686;23.352;2023-06-26T07:58:52;95006.69;;;22.91;58.64
41234;BME280;26968;42.686;23.352;2023-06-26T08:01:19;95022.34;;;23.01;57.86
41234;BME280;26968;42.686;23.352;2023-06-26T08:03:44;94956.25;;;22.80;56.92
41234;BME280;26968;42.686;23.352;2023-06-26T08:06:10;94998.97;;;22.74;57.41
41234;BME280;26968;42.686;23.352;2023-06-26T08:08:36;95004.34;;;22.90;57.45
41234;BME280;26968;42.686;23.352;2023-06-26T08:11:01;94963.06;;;22.74;57.33
41234;BME280;26968;42.686;23.352;2023-06-26T08:13:27;94994.72;;;22.73;57.28
41234;BME280;26968;42.686;23.352;2023-06-26T08:15:52;95010.53;;;22.90;56.80
41234;BME280;26968;42.686;23.352;2023-06-26T08:18:18;95012.59;;;23.16;57.25
41234;BME280;26968;42.686;23.352;2023-06-26T08:20:43;95018.41;;;23.37;57.27
41234;BME280;26968;42.686;23.352;2023-06-26T08:23:09;95005.19;;;23.13;57.64
41234;BME280;26968;42.686;23.352;2023-06-26T08:25:34;95002.34;;;23.06;58.32
41234;BME280;26968;42.686;23.352;2023-06-26T08:28:00;94998.72;;;23.18;58.02
41234;BME280;26968;42.686;23.352;2023-06-26T08:30:25;94989.59;;;23.26;56.75
41234;BME280;26968;42.686;23.352;2023-06-26T08:32:54;95015.91;;;23.29;56.64
41234;BME280;26968;42.686;23.352;2023-06-26T08:35:20;95023.34;;;23.32;56.81
41234;BME280;26968;42.686;23.352;2023-06-26T08:37:45;94998.78;;;23.02;56.61
41234;BME280;26968;42.686;23.352;2023-06-26T08:40:12;95029.88;;;23.12;56.79
41234;BME280;26968;42.686;23.352;2023-06-26T08:42:37;94986.13;;;22.87;56.90
41234;BME280;26968;42.686;23.352;2023-06-26T08:45:03;95021.63;;;23.24;55.87
41234;BME280;26968;42.686;23.352;2023-06-26T08:47:30;94999.63;;;23.25;55.69
41234;BME280;26968;42.686;23.352;2023-06-26T08:50:20;95021.13;;;23.57;55.06
41234;BME280;26968;42.686;23.352;2023-06-26T08:55:43;95000.59;;;23.36;56.13
41234;BME280;26968;42.686;23.352;2023-06-26T08:58:09;95015.28;;;23.77;55.68
41234;BME280;26968;42.686;23.352;2023-06-26T09:00:35;95003.25;;;23.52;53.94
41234;BME280;26968;42.686;23.352;2023-06-26T09:03:03;95008.19;;;23.69;53.99
41234;BME280;26968;42.686;23.352;2023-06-26T09:05:29;94940.69;;;23.15;54.19
41234;BME280;26968;42.686;23.352;2023-06-26T09:07:56;95002.97;;;23.57;53.84
41234;BME280;26968;42.686;23.352;2023-06-26T09:10:22;95004.94;;;23.60;54.62
41234;BME280;26968;42.686;23.352;2023-06-26T09:12:47;94974.31;;;23.37;54.40
41234;BME280;26968;42.686;23.352;2023-06-26T09:15:22;95001.78;;;23.58;53.07
41234;BME280;26968;42.686;23.352;2023-06-26T09:17:48;95014.88;;;23.75;54.20
41234;BME280;26968;42.686;23.352;2023-06-26T09:20:14;95008.75;;;23.78;54.09
41234;BME280;26968;42.686;23.352;2023-06-26T09:22:47;94980.00;;;23.51;54.68
41234;BME280;26968;42.686;23.352;2023-06-26T09:25:13;95006.19;;;23.89;52.76
41234;BME280;26968;42.686;23.352;2023-06-26T09:27:39;94955.31;;;23.53;53.68
41234;BME280;26968;42.686;23.352;2023-06-26T09:30:06;94948.66;;;23.73;52.94
41234;BME280;26968;42.686;23.352;2023-06-26T09:32:37;95004.44;;;24.23;53.94
41234;BME280;26968;42.686;23.352;2023-06-26T09:35:03;94983.72;;;24.11;53.86
41234;BME280;26968;42.686;23.352;2023-06-26T09:37:30;94978.75;;;23.68;52.54
41234;BME280;26968;42.686;23.352;2023-06-26T09:39:56;94927.41;;;23.29;53.37
41234;BME280;26968;42.686;23.352;2023-06-26T09:42:22;94995.44;;;23.70;53.12
41234;BME280;26968;42.686;23.352;2023-06-26T09:44:48;94996.03;;;23.82;53.01
41234;BME280;26968;42.686;23.352;2023-06-26T09:47:18;94989.81;;;23.82;51.90
41234;BME280;26968;42.686;23.352;2023-06-26T09:49:44;94941.81;;;24.05;51.92
41234;BME280;26968;42.686;23.352;2023-06-26T09:52:14;94984.22;;;24.43;50.74
41234;BME280;26968;42.686;23.352;2023-06-26T09:54:40;95008.88;;;24.35;50.43
41234;BME280;26968;42.686;23.352;2023-06-26T09:57:09;94923.16;;;23.74;49.92
41234;BME280;26968;42.686;23.352;2023-06-26T09:59:35;94985.13;;;24.02;50.44
41234;BME280;26968;42.686;23.352;2023-06-26T10:02:02;94932.75;;;23.68;50.92
41234;BME280;26968;42.686;23.352;2023-06-26T10:04:28;95013.38;;;24.23;50.99
41234;BME280;26968;42.686;23.352;2023-06-26T10:06:55;94980.78;;;23.97;50.56
41234;BME280;26968;42.686;23.352;2023-06-26T10:09:22;94989.34;;;23.99;50.14
41234;BME280;26968;42.686;23.352;2023-06-26T10:12:01;94993.38;;;23.86;50.78
41234;BME280;26968;42.686;23.352;2023-06-26T10:14:38;95001.78;;;24.04;50.94
41234;BME280;26968;42.686;23.352;2023-06-26T10:17:10;94993.84;;;24.14;50.18
41234;BME280;26968;42.686;23.352;2023-06-26T10:19:38;94999.59;;;24.13;50.58
41234;BME280;26968;42.686;23.352;2023-06-26T10:22:05;94971.72;;;23.63;51.30
41234;BME280;26968;42.686;23.352;2023-06-26T10:24:33;94999.63;;;23.90;51.61
41234;BME280;26968;42.686;23.352;2023-06-26T10:27:28;95000.00;;;23.89;50.73
41234;BME280;26968;42.686;23.352;2023-06-26T10:30:00;95016.34;;;23.73;50.49
41234;BME280;26968;42.686;23.352;2023-06-26T10:32:27;95001.44;;;23.60;50.24
41234;BME280;26968;42.686;23.352;2023-06-26T10:34:55;95009.63;;;23.63;50.00
41234;BME280;26968;42.686;23.352;2023-06-26T10:37:20;94960.47;;;23.19;49.98
41234;BME280;26968;42.686;23.352;2023-06-26T10:39:50;95002.09;;;23.53;49.55
41234;BME280;26968;42.686;23.352;2023-06-26T10:42:17;94978.53;;;23.54;49.61
41234;BME280;26968;42.686;23.352;2023-06-26T10:44:45;94980.13;;;23.58;49.11
41234;BME280;26968;42.686;23.352;2023-06-26T10:47:12;94983.03;;;23.92;48.89
41234;BME280;26968;42.686;23.352;2023-06-26T10:49:53;94971.53;;;23.75;49.53
41234;BME280;26968;42.686;23.352;2023-06-26T10:52:19;94947.78;;;23.65;48.94
41234;BME280;26968;42.686;23.352;2023-06-26T10:54:44;94951.22;;;23.62;51.41
41234;BME280;26968;42.686;23.352;2023-06-26T10:57:10;94967.69;;;23.76;51.21
41234;BME280;26968;42.686;23.352;2023-06-26T10:59:39;94971.38;;;23.88;50.93
41234;BME280;26968;42.686;23.352;2023-06-26T11:02:05;94961.09;;;24.00;50.32
41234;BME280;26968;42.686;23.352;2023-06-26T11:07:19;94988.91;;;24.20;50.33
41234;BME280;26968;42.686;23.352;2023-06-26T11:09:59;94956.91;;;24.03;48.89
41234;BME280;26968;42.686;23.352;2023-06-26T11:15:10;94952.47;;;24.44;49.04
41234;BME280;26968;42.686;23.352;2023-06-26T11:17:37;94969.88;;;24.43;49.20
41234;BME280;26968;42.686;23.352;2023-06-26T11:20:05;94938.22;;;24.80;48.01
41234;BME280;26968;42.686;23.352;2023-06-26T11:22:31;94969.69;;;25.18;47.23
41234;BME280;26968;42.686;23.352;2023-06-26T11:24:59;94970.28;;;25.75;45.61
41234;BME280;26968;42.686;23.352;2023-06-26T11:27:42;94948.38;;;26.01;44.64
41234;BME280;26968;42.686;23.352;2023-06-26T11:30:09;94965.97;;;26.22;44.65
41234;BME280;26968;42.686;23.352;2023-06-26T11:32:39;94962.31;;;26.51;43.26
41234;BME280;26968;42.686;23.352;2023-06-26T11:35:05;94974.72;;;26.48;43.39
41234;BME280;26968;42.686;23.352;2023-06-26T11:37:31;94972.94;;;26.16;43.69
41234;BME280;26968;42.686;23.352;2023-06-26T11:39:57;94968.13;;;25.98;43.53
41234;BME280;26968;42.686;23.352;2023-06-26T11:42:23;94945.31;;;25.59;43.78
41234;BME280;26968;42.686;23.352;2023-06-26T11:44:50;94937.31;;;25.36;43.81
41234;BME280;26968;42.686;23.352;2023-06-26T11:47:19;94964.63;;;25.54;45.21
41234;BME280;26968;42.686;23.352;2023-06-26T11:49:46;94944.22;;;25.67;45.24
41234;BME280;26968;42.686;23.352;2023-06-26T11:52:13;94962.53;;;25.77;45.10
41234;BME280;26968;42.686;23.352;2023-06-26T11:54:38;94958.53;;;26.11;44.53
41234;BME280;26968;42.686;23.352;2023-06-26T11:57:05;94957.00;;;26.18;43.19
41234;BME280;26968;42.686;23.352;2023-06-26T11:59:38;94933.81;;;26.27;44.33
41234;BME280;26968;42.686;23.352;2023-06-26T12:02:08;94931.28;;;26.63;42.89
41234;BME280;26968;42.686;23.352;2023-06-26T12:04:50;94957.03;;;26.83;42.17
41234;BME280;26968;42.686;23.352;2023-06-26T12:07:16;94929.81;;;26.76;42.95
41234;BME280;26968;42.686;23.352;2023-06-26T12:09:43;94957.16;;;27.08;42.26
41234;BME280;26968;42.686;23.352;2023-06-26T12:12:11;94953.63;;;27.04;42.07
41234;BME280;26968;42.686;23.352;2023-06-26T12:14:37;94953.66;;;27.11;41.27
41234;BME280;26968;42.686;23.352;2023-06-26T12:17:12;94964.59;;;27.25;40.88
41234;BME280;26968;42.686;23.352;2023-06-26T12:19:46;94963.09;;;27.45;40.23
41234;BME280;26968;42.686;23.352;2023-06-26T12:22:15;94941.28;;;27.35;40.96
41234;BME280;26968;42.686;23.352;2023-06-26T12:24:42;94955.75;;;27.53;41.05
41234;BME280;26968;42.686;23.352;2023-06-26T12:27:18;94932.41;;;27.73;40.39
41234;BME280;26968;42.686;23.352;2023-06-26T12:29:52;94964.69;;;27.85;40.16
41234;BME280;26968;42.686;23.352;2023-06-26T12:32:18;94970.16;;;27.60;39.86
41234;BME280;26968;42.686;23.352;2023-06-26T12:34:48;94959.25;;;27.71;39.18
41234;BME280;26968;42.686;23.352;2023-06-26T12:37:14;94941.75;;;27.72;39.59
41234;BME280;26968;42.686;23.352;2023-06-26T12:42:25;94969.69;;;27.41;41.35
41234;BME280;26968;42.686;23.352;2023-06-26T12:44:52;94955.94;;;26.95;41.32
41234;BME280;26968;42.686;23.352;2023-06-26T12:47:24;94961.25;;;26.70;43.11
41234;BME280;26968;42.686;23.352;2023-06-26T12:49:51;94961.69;;;26.82;42.78
41234;BME280;26968;42.686;23.352;2023-06-26T12:52:17;94943.00;;;26.12;43.60
41234;BME280;26968;42.686;23.352;2023-06-26T12:54:46;94952.47;;;25.78;44.85
41234;BME280;26968;42.686;23.352;2023-06-26T12:57:13;94941.88;;;25.65;45.98
41234;BME280;26968;42.686;23.352;2023-06-26T12:59:39;94962.44;;;26.14;45.24
41234;BME280;26968;42.686;23.352;2023-06-26T13:02:05;94940.84;;;26.35;44.95
41234;BME280;26968;42.686;23.352;2023-06-26T13:04:33;94937.81;;;26.44;43.47